Home > Products > Valid Products > MTR

000
SAUS43 KUNR 220403
MTR2WX
METAR K2WX 220356Z AUTO 13010KT 12/02 A3016 RMK AO1 SLP210 T01220022





000
SAUS43 KUNR 220358
MTRD07
METAR KD07 220356Z AUTO 15012KT 12/04 A3024 RMK AO1 SLP241 T01220044





000
SAUS43 KUNR 220303
MTR2WX
METAR K2WX 220256Z AUTO 13007KT 12/02 A3017 RMK AO1 SLP216 T01220022
55001





000
SAUS43 KUNR 220257
MTRD07
METAR KD07 220256Z AUTO 14009KT 14/04 A3024 RMK AO1 SLP242 T01390039
55001





000
SAUS43 KUNR 220203
MTR2WX
METAR K2WX 220156Z AUTO 11010KT 16/02 A3017 RMK AO1 SLP219 T01560022





000
SAUS43 KUNR 220103
MTR2WX
METAR K2WX 220056Z AUTO 11008KT 18/03 A3016 RMK AO1 SLP216 T01780028





000
SAUS43 KUNR 220057
MTRD07
METAR KD07 220056Z AUTO 13008KT 17/04 A3024 RMK AO1 SLP244 T01720039





000
SAUS43 KUNR 220003
MTR2WX
METAR K2WX 212356Z AUTO 11006KT 21/02 A3017 RMK AO1 SLP213 T02110017
10233 20200 56012





000
SAUS43 KUNR 212357
MTRD07
METAR KD07 212356Z AUTO 00000KT 21/03 A3024 RMK AO1 SLP243 T02110033
10228 20194 56007





000
SAUS43 KUNR 212303
MTR2WX
METAR K2WX 212256Z AUTO 00000KT 23/01 A3018 RMK AO1 SLP213 T02280006





000
SAUS43 KUNR 212257
MTRD07
METAR KD07 212256Z AUTO 00000KT 22/02 A3025 RMK AO1 SLP245 T02220017





000
SAUS43 KUNR 212203
MTR2WX
METAR K2WX 212156Z AUTO VRB04KT 23/M01 A3019 RMK AO1 SLP217
T02281006





000
SAUS43 KUNR 212158
MTRD07
METAR KD07 212156Z AUTO 15004KT 22/03 A3026 RMK AO1 SLP248 T02170028





000
SAUS43 KUNR 212103
MTR2WX
METAR K2WX 212056Z AUTO VRB03KT 23/00 A3021 RMK AO1 SLP223 T02280000
57018





000
SAUS43 KUNR 212057
MTRD07
METAR KD07 212056Z AUTO VRB03KT 22/04 A3027 RMK AO1 SLP250 T02170039
58018





000
SAUS43 KUNR 212003
MTR2WX
METAR K2WX 211956Z AUTO 09004KT 23/02 A3023 RMK AO1 SLP231 T02280017





000
SAUS43 KUNR 211957
MTRD07
METAR KD07 211956Z AUTO 00000KT 21/02 A3029 RMK AO1 SLP258 T02110022





000
SAUS43 KUNR 211903
MTR2WX
METAR K2WX 211856Z AUTO 00000KT 22/01 A3025 RMK AO1 SLP238 T02170011





000
SAUS43 KUNR 211857
MTRD07
METAR KD07 211856Z AUTO 36005KT 21/03 A3031 RMK AO1 SLP267 T02060033





000
SAUS43 KUNR 211803
MTR2WX
METAR K2WX 211756Z AUTO 20003KT 21/03 A3027 RMK AO1 SLP241 T02110028
10211 20044 58004





000
SAUS43 KUNR 211757
MTRD07
METAR KD07 211756Z AUTO VRB03KT 19/03 A3033 RMK AO1 SLP271 T01940033
10200 20067 50001





000
SAUS43 KUNR 211703
MTR2WX
METAR K2WX 211656Z AUTO VRB03KT 19/02 A3027 RMK AO1 SLP246 T01940022





000
SAUS43 KUNR 211657
MTRD07
METAR KD07 211656Z AUTO 35005KT 19/04 A3033 RMK AO1 SLP271 T01890044





000
SAUS43 KUNR 211603
MTR2WX
METAR K2WX 211556Z AUTO 27003KT 17/03 A3028 RMK AO1 SLP248 T01670028





000
SAUS43 KUNR 211557
MTRD07
METAR KD07 211556Z AUTO 31007KT 17/05 A3033 RMK AO1 SLP274 T01720050





000
SAUS43 KUNR 211503
MTR2WX
METAR K2WX 211456Z AUTO 27003KT 13/03 A3028 RMK AO1 SLP249 T01330028
51008





000
SAUS43 KUNR 211457
MTRD07
METAR KD07 211456Z AUTO 30006KT 14/05 A3032 RMK AO1 SLP273 T01440050
51011





000
SAUS43 KUNR 211403
MTR2WX
METAR K2WX 211356Z AUTO 27006KT 07/02 A3027 RMK AO1 SLP253 T00670022





000
SAUS43 KUNR 211357
MTRD07
METAR KD07 211356Z AUTO 30007KT 11/03 A3032 RMK AO1 SLP272 T01110028





000
SAUS43 KUNR 211303
MTR2WX
METAR K2WX 211256Z AUTO 26006KT 05/01 A3027 RMK AO1 SLP252 T00500011





000
SAUS43 KUNR 211257
MTRD07
METAR KD07 211256Z AUTO 29008KT 07/02 A3031 RMK AO1 SLP269 T00720022





000
SAUS43 KUNR 211203
MTR2WX
METAR K2WX 211156Z AUTO 00000KT 07/02 A3025 RMK AO1 SLP241 T00720017
10117 20067 52007





000
SAUS43 KUNR 211157
MTRD07
METAR KD07 211156Z AUTO 28009KT 07/02 A3029 RMK AO1 SLP258 T00720022
10094 20061 51009





000
SAUS43 KUNR 211103
MTR2WX
METAR K2WX 211056Z AUTO 32005KT 09/01 A3025 RMK AO1 SLP235 T00940011





000
SAUS43 KUNR 211057
MTRD07
METAR KD07 211056Z AUTO 29008KT 07/02 A3028 RMK AO1 SLP255 T00670022





000
SAUS43 KUNR 211003
MTR2WX
METAR K2WX 210956Z AUTO 31007KT 09/02 A3024 RMK AO1 SLP232 T00890017





000
SAUS43 KUNR 210957
MTRD07
METAR KD07 210956Z AUTO 30008KT 08/02 A3027 RMK AO1 SLP250 T00780022





000
SAUS43 KUNR 210903
MTR2WX
METAR K2WX 210856Z AUTO 30007KT 09/02 A3023 RMK AO1 SLP229 T00890017
51010





000
SAUS43 KUNR 210857
MTRD07
METAR KD07 210856Z AUTO 29007KT 08/03 A3026 RMK AO1 SLP245 T00780028
51012





000
SAUS43 KUNR 210803
MTR2WX
METAR K2WX 210756Z AUTO 25006KT 07/02 A3022 RMK AO1 SLP229 T00720017





000
SAUS43 KUNR 210757
MTRD07
METAR KD07 210756Z AUTO 30008KT 08/03 A3025 RMK AO1 SLP241 T00780028





000
SAUS43 KUNR 210703
MTR2WX
METAR K2WX 210656Z AUTO 32007KT 09/02 A3021 RMK AO1 SLP224 T00940017
402390089





000
SAUS43 KUNR 210657
MTRD07
METAR KD07 210656Z AUTO 30009KT 08/03 A3023 RMK AO1 SLP238 T00830028
402440083





000
SAUS43 KUNR 210603
MTR2WX
METAR K2WX 210556Z AUTO 34013KT 12/02 A3020 RMK AO1 SLP218 T01170022
10211 20111 53012





000
SAUS43 KUNR 210557
MTRD07
METAR KD07 210556Z AUTO 31007KT 09/03 A3022 RMK AO1 SLP231 T00940028
10211 20094 51015





000
SAUS43 KUNR 210503
MTR2WX
METAR K2WX 210456Z AUTO 35016KT 11/02 A3019 RMK AO1 SLP216 T01110022





000
SAUS43 KUNR 210457
MTRD07
METAR KD07 210456Z AUTO 30010KT 11/03 A3021 RMK AO1 SLP227 T01060028





000
SAUS43 KUNR 210403
MTR2WX
METAR K2WX 210356Z AUTO 34015KT 14/02 A3017 RMK AO1 SLP207 T01440017





000
SAUS43 KUNR 210403
MTR2WX
METAR K2WX 210356Z AUTO 34015KT 14/02 A3017 RMK AO1 SLP207 T01440017





000
SAUS43 KUNR 210357
MTRD07
METAR KD07 210356Z AUTO 29009KT 11/03 A3020 RMK AO1 SLP223 T01060033





000
SAUS43 KUNR 210303
MTR2WX
METAR K2WX 210256Z AUTO 32011KT 16/02 A3016 RMK AO1 SLP202 T01610017
53016





000
SAUS43 KUNR 210257
MTRD07
METAR KD07 210256Z AUTO 30009KT 12/03 A3018 RMK AO1 SLP216 T01220033
51020





000
SAUS43 KUNR 210203
MTR2WX
METAR K2WX 210156Z AUTO 33015KT 17/02 A3014 RMK AO1 SLP198 T01720017





000
SAUS43 KUNR 210157
MTRD07
METAR KD07 210156Z AUTO 31008KT 13/03 A3016 RMK AO1 SLP212 T01330028





000
SAUS43 KUNR 210103
MTR2WX
METAR K2WX 210056Z AUTO 32015KT 18/02 A3012 RMK AO1 SLP192 T01830017





000
SAUS43 KUNR 210057
MTRD07
METAR KD07 210056Z AUTO 32011KT 17/02 A3013 RMK AO1 PK WND
32026/0010 SLP201 T01720017





000
SAUS43 KUNR 210003
MTR2WX
METAR K2WX 202356Z AUTO 31019G27KT 21/01 A3011 RMK AO1 PK WND
32033/2316 SLP187 T02110011 10239 20200 53004





000
SAUS43 KUNR 202357
MTRD07
METAR KD07 202356Z AUTO 32016G25KT 21/01 A3011 RMK AO1 PK WND
32029/2317 SLP191 T02110011 10244 20211 53007





000
SAUS43 KUNR 202303
MTR2WX
METAR K2WX 202256Z AUTO 32025G32KT 22/01 A3010 RMK AO1 PK WND
32036/2203 SLP181 T02220006





000
SAUS43 KUNR 202257
MTRD07
METAR KD07 202256Z AUTO 32023G29KT 23/01 A3010 RMK AO1 PK WND
34034/2159 SLP186 T02280011





000
SAUS43 KUNR 202203
MTR2WX
METAR K2WX 202156Z AUTO 31020G30KT 23/02 A3009 RMK AO1 PK WND
32036/2106 SLP178 T02330022





000
SAUS43 KUNR 202157
MTRD07
METAR KD07 202156Z AUTO 33027G35KT 24/01 A3009 RMK AO1 PK WND
32036/2145 SLP181 T02390011





000
SAUS43 KUNR 202103
MTR2WX
METAR K2WX 202056Z AUTO 31021G30KT 23/03 A3010 RMK AO1 PK WND
33034/2041 SLP179 T02330033 53008





000
SAUS43 KUNR 202057
MTRD07
METAR KD07 202056Z AUTO 34022G35KT 24/03 A3009 RMK AO1 PK WND
31037/2025 SLP180 T02390033 51016





000
SAUS43 KUNR 202003
MTR2WX
METAR K2WX 201956Z AUTO 34025G38KT 23/03 A3007 RMK AO1 PK WND
32038/1947 SLP172 T02280028





000
SAUS43 KUNR 201957
MTRD07
METAR KD07 201956Z AUTO 32024G35KT 24/06 A3008 RMK AO1 PK WND
32037/1939 SLP177 T02390056





000
SAUS43 KUNR 201903
MTR2WX
METAR K2WX 201856Z AUTO 33020G27KT 22/06 A3007 RMK AO1 PK WND
31031/1813 SLP172 T02220061





000
SAUS43 KUNR 201857
MTRD07
METAR KD07 201856Z AUTO 32024G38KT 23/07 A3007 RMK AO1 PK WND
32040/1835 SLP173 T02280072





000
SAUS43 KUNR 201803
MTR2WX
METAR K2WX 201756Z AUTO 32027G34KT 20/07 A3007 RMK AO1 PK WND
33036/1702 SLP173 T02000072 10206 20122 51024





000
SAUS43 KUNR 201757
MTRD07
METAR KD07 201756Z AUTO 31025G34KT 24/08 A3004 RMK AO1 PK WND
31038/1741 SLP162 T02390078 10239 20133 52012





000
SAUS43 KUNR 201703
MTR2WX
METAR K2WX 201656Z AUTO 32028G35KT 20/07 A3005 RMK AO1 PK WND
31038/1624 SLP165 T02000067





000
SAUS43 KUNR 201657
MTRD07
METAR KD07 201656Z AUTO 31025G31KT 23/07 A3002 RMK AO1 PK WND
31031/1650 SLP155 T02330072





000
SAUS43 KUNR 201603
MTR2WX
METAR K2WX 201556Z AUTO 30025G36KT 20/06 A3002 RMK AO1 PK WND
32037/1546 SLP154 T02000061





000
SAUS43 KUNR 201558
MTRD07
METAR KD07 201556Z AUTO 31021G25KT 22/08 A3002 RMK AO1 SLP153
T02220083





000
SAUS43 KUNR 201503
MTR2WX
METAR K2WX 201456Z AUTO 29020KT 19/07 A2999 RMK AO1 SLP146 T01890072
51019





000
SAUS43 KUNR 201457
MTRD07
METAR KD07 201456Z AUTO 30016G27KT 19/09 A3000 RMK AO1 PK WND
30027/1448 SLP149 T01940094 51014





000
SAUS43 KUNR 201403
MTR2WX
METAR K2WX 201356Z AUTO 29018KT 16/08 A2998 RMK AO1 SLP142 T01610078





000
SAUS43 KUNR 201358
MTRD07
METAR KD07 201356Z AUTO 28014KT 17/09 A2998 RMK AO1 SLP146 T01670094





000
SAUS43 KUNR 201303
MTR2WX
METAR K2WX 201256Z AUTO 28012KT 13/08 A2996 RMK AO1 SLP134 T01330078





000
SAUS43 KUNR 201257
MTRD07
METAR KD07 201256Z AUTO 28013KT 14/09 A2997 RMK AO1 SLP142 T01440089





000
SAUS43 KUNR 201203
MTR2WX
METAR K2WX 201156Z AUTO 28012KT 12/08 A2993 RMK AO1 SLP122 7////
T01220083 10133 20111 53004





000
SAUS43 KUNR 201157
MTRD07
METAR KD07 201156Z AUTO 28010KT 13/08 A2995 RMK AO1 SLP135 T01330083
10156 20128 53005





000
SAUS43 KUNR 201103
MTR2WX
METAR K2WX 201056Z AUTO 27011KT 13/08 A2992 RMK AO1 SLP119 T01280083





000
SAUS43 KUNR 201003
MTR2WX
METAR K2WX 200956Z AUTO 28009KT 12/08 A2992 RMK AO1 SLP116 T01220083





000
SAUS43 KUNR 200957
MTRD07
METAR KD07 200956Z AUTO 28010KT 14/09 A2994 RMK AO1 SLP126 T01440089





000
SAUS43 KUNR 200903
MTR2WX
METAR K2WX 200856Z AUTO 26010KT 12/08 A2992 RMK AO1 SLP116 T01220083
53008





000
SAUS43 KUNR 200857
MTRD07
METAR KD07 200856Z AUTO 28011KT 14/09 A2994 RMK AO1 SLP125 T01390089
51007





000
SAUS43 KUNR 200803
MTR2WX
METAR K2WX 200756Z AUTO 27009KT 12/08 A2991 RMK AO1 SLP113 T01220078





000
SAUS43 KUNR 200757
MTRD07
METAR KD07 200756Z AUTO 28011KT 14/09 A2993 RMK AO1 SLP123 T01440089





000
SAUS43 KUNR 200703
MTR2WX
METAR K2WX 200656Z AUTO 28007KT 12/08 A2990 RMK AO1 SLP109 T01170078
402720117





000
SAUS43 KUNR 200657
MTRD07
METAR KD07 200656Z AUTO 28008KT 15/09 A2992 RMK AO1 SLP121 T01500094
402830150





000
SAUS43 KUNR 200603
MTR2WX
METAR K2WX 200556Z AUTO 29009KT 13/08 A2989 RMK AO1 SLP107 T01280078
10239 20128 51011





000
SAUS43 KUNR 200557
MTRD07
METAR KD07 200556Z AUTO 29009KT 16/09 A2991 RMK AO1 SLP118 T01560094
10244 20156 51015





000
SAUS43 KUNR 200503
MTR2WX
METAR K2WX 200456Z AUTO 30010KT 13/08 A2988 RMK AO1 SLP105 T01330078





000
SAUS43 KUNR 200457
MTRD07
METAR KD07 200456Z AUTO 29009KT 18/10 A2990 RMK AO1 SLP113 T01780100





000
SAUS43 KUNR 200403
MTR2WX
METAR K2WX 200356Z AUTO 29009KT 13/08 A2987 RMK AO1 SLP101 T01330083





000
SAUS43 KUNR 200357
MTRD07
METAR KD07 200356Z AUTO 29009KT 18/10 A2989 RMK AO1 SLP109 T01830100





000
SAUS43 KUNR 200303
MTR2WX
METAR K2WX 200256Z AUTO 30011KT 14/08 A2986 RMK AO1 SLP099 T01440083
53016





000
SAUS43 KUNR 200257
MTRD07
METAR KD07 200256Z AUTO 31011KT 19/10 A2987 RMK AO1 SLP104 T01890100
51016





000
SAUS43 KUNR 200203
MTR2WX
METAR K2WX 200156Z AUTO 29010KT 16/09 A2984 RMK AO1 SLP095 T01560089





000
SAUS43 KUNR 200157
MTRD07
METAR KD07 200156Z AUTO 31009KT 19/09 A2986 RMK AO1 SLP103 T01890094





000
SAUS43 KUNR 200103
MTR2WX
METAR K2WX 200056Z AUTO 28009KT 19/09 A2982 RMK AO1 SLP084 T01940089





000
SAUS43 KUNR 200057
MTRD07
METAR KD07 200056Z AUTO 30009KT 22/09 A2984 RMK AO1 SLP094 T02170094





000
SAUS43 KUNR 200003
MTR2WX
METAR K2WX 192356Z AUTO 30015KT 24/08 A2981 RMK AO1 SLP075 T02390078
10272 20233 51016





000
SAUS43 KUNR 192357
MTRD07
METAR KD07 192356Z AUTO 32013KT 24/10 A2982 RMK AO1 SLP085 T02440100
10283 20244 53016





000
SAUS43 KUNR 192303
MTR2WX
METAR K2WX 192256Z AUTO 30015KT 23/08 A2980 RMK AO1 PK WND
31031/2159 SLP071 T02330078





000
SAUS43 KUNR 192257
MTRD07
METAR KD07 192256Z AUTO 30013KT 27/11 A2980 RMK AO1 SLP076 T02720106





000
SAUS43 KUNR 192203
MTR2WX
METAR K2WX 192156Z AUTO 29022G30KT 26/07 A2977 RMK AO1 PK WND
29032/2142 SLP059 T02610072





000
SAUS43 KUNR 192157
MTRD07
METAR KD07 192156Z AUTO 30014KT 28/10 A2978 RMK AO1 SLP068 T02780100





000
SAUS43 KUNR 192103
MTR2WX
METAR K2WX 192056Z AUTO 28022G31KT 27/07 A2976 RMK AO1 PK WND
29031/2049 SLP052 T02670072 53003





000
SAUS43 KUNR 192057
MTRD07
METAR KD07 192056Z AUTO 30013G20KT 28/11 A2977 RMK AO1 SLP062
T02830106 53002





000
SAUS43 KUNR 192003
MTR2WX
METAR K2WX 191956Z AUTO 29019G24KT 27/08 A2975 RMK AO1 SLP050
T02670083





000
SAUS43 KUNR 191957
MTRD07
METAR KD07 191956Z AUTO 33017KT 28/09 A2976 RMK AO1 SLP060 T02830094





000
SAUS43 KUNR 191903
MTR2WX
METAR K2WX 191856Z AUTO 29017G23KT 27/08 A2975 RMK AO1 PK WND
28026/1809 SLP049 T02670083





000
SAUS43 KUNR 191857
MTRD07
METAR KD07 191856Z AUTO 31013G21KT 27/11 A2976 RMK AO1 SLP060
T02720106





000
SAUS43 KUNR 191803
MTR2WX
METAR K2WX 191756Z AUTO 31015G22KT 26/09 A2975 RMK AO1 SLP050 6////
T02560089 10256 20150 50003





000
SAUS43 KUNR 191757
MTRD07
METAR KD07 191756Z AUTO 29012KT 26/14 A2976 RMK AO1 SLP060 T02560144
10256 20156 50004





000
SAUS43 KUNR 191703
MTR2WX
METAR K2WX 191656Z AUTO 28018KT 23/11 A2975 RMK AO1 SLP051 T02330106





000
SAUS43 KUNR 191658
MTRD07
METAR KD07 191656Z AUTO 30016KT 23/14 A2977 RMK AO1 SLP066 T02280139





000
SAUS43 KUNR 191603
MTR2WX
METAR K2WX 191556Z AUTO 27015KT 22/12 A2975 RMK AO1 SLP051 T02170122





000
SAUS43 KUNR 191558
MTRD07
METAR KD07 191556Z AUTO 29016G21KT 22/14 A2975 RMK AO1 SLP061
T02220139





000
SAUS43 KUNR 191504
MTR2WX
METAR K2WX 191456Z AUTO 27010KT 18/13 A2974 RMK AO1 SLP052 T01830133
53020





000
SAUS43 KUNR 191457
MTRD07
METAR KD07 191456Z AUTO 26010KT 20/14 A2975 RMK AO1 SLP060 T02000139
51013





000
SAUS43 KUNR 191403
MTR2WX
METAR K2WX 191356Z AUTO 27010KT 16/12 A2971 RMK AO1 SLP043 T01610122





000
SAUS43 KUNR 191357
MTRD07
METAR KD07 191356Z AUTO 28009KT 18/14 A2974 RMK AO1 SLP058 T01780139





000
SAUS43 KUNR 191303
MTR2WX
METAR K2WX 191256Z AUTO 28011KT 15/12 A2969 RMK AO1 SLP036 T01500117
$





000
SAUS43 KUNR 191257
MTRD07
METAR KD07 191256Z AUTO 24010KT 16/13 A2972 RMK AO1 SLP053 T01610133





000
SAUS43 KUNR 191203
MTR2WX
METAR K2WX 191156Z AUTO 27012KT 16/12 A2967 RMK AO1 SLP026 7////
T01610122 10211 20156 55002 $





000
SAUS43 KUNR 191157
MTRD07
METAR KD07 191156Z AUTO 22004KT 17/13 A2971 RMK AO1 SLP045 60001
70006 T01670128 10211 20161 58006





000
SAUS43 KUNR 191103
MTR2WX
METAR K2WX 191056Z AUTO 26010KT 16/13 A2966 RMK AO1 SLP022 T01610128
$





000
SAUS43 KUNR 191058
MTRD07
METAR KD07 191056Z AUTO 23006KT 16/14 A2972 RMK AO1 SLP050 T01610139





000
SAUS43 KUNR 191003
MTR2WX
METAR K2WX 190956Z AUTO 28008KT 17/13 A2965 RMK AO1 PK WND
28033/0900 SLP017 T01720133 $





000
SAUS43 KUNR 190957
MTRD07
METAR KD07 190956Z AUTO 25007KT 16/16 A2973 RMK AO1 SLP055 T01610156





000
SAUS43 KUNR 190903
MTR2WX
METAR K2WX 190856Z AUTO 28026G33KT 20/12 A2968 RMK AO1 PK WND
27040/0825 SLP024 T02000122 55010 $





000
SAUS43 KUNR 190858
MTRD07
METAR KD07 190856Z AUTO 13004KT 18/16 A2972 RMK AO1 SLP050 60001
T01780156 53008





000
SAUS43 KUNR 190803
MTR2WX
METAR K2WX 190756Z AUTO 24012KT 18/12 A2967 RMK AO1 SLP024 T01780122
$





000
SAUS43 KUNR 190758
MTRD07
METAR KD07 190756Z AUTO 22004KT 18/17 A2972 RMK AO1 SLP048 T01780167





000
SAUS43 KUNR 190703
MTR2WX
METAR K2WX 190656Z AUTO 31010KT 21/11 A2966 RMK AO1 SLP017 T02110111
402890111 $





000
SAUS43 KUNR 190657
MTRD07
METAR KD07 190656Z AUTO 05009KT 19/18 A2969 RMK AO1 SLP038 P0001
T01940178 402780111





000
SAUS43 KUNR 190603
MTR2WX
METAR K2WX 190556Z AUTO 29011KT 20/12 A2971 RMK AO1 PK WND
30027/0514 SLP038 T02000122 10256 20189 51013 $





000
SAUS43 KUNR 190557
MTRD07
METAR KD07 190556Z AUTO 16018G23KT 21/16 A2970 RMK AO1 SLP041 P0005
60005 T02110161 10256 20194 55005





000
SAUS43 KUNR 190503
MTR2WX
METAR K2WX 190456Z AUTO 31021G28KT 21/12 A2971 RMK AO1 PK WND
29035/0402 SLP039 T02060122 $





000
SAUS43 KUNR 190457
MTRD07
METAR KD07 190456Z AUTO 14012KT 20/17 A2969 RMK AO1 SLP042 T02000172





    US Dept of Commerce
    National Oceanic and Atmospheric Administration
    National Weather Service
    1325 East West Highway
    Silver Spring, MD 20910
    Page Author: NWS Internet Services Team
Disclaimer
Information Quality
Credits
Glossary
Privacy Policy
Freedom of Information Act (FOIA)
About Us
Career Opportunities